Time;durP1;ratioP1;P1;durP2;ratioP2;P2;SDS_P1;SDS_P2;PMS_P1;PMS_P2;Temp;Humidity;BMP_temperature;BMP_pressure;BME280_temperature;BME280_humidity;BME280_pressure;Samples;Min_cycle;Max_cycle;Signal;HPM_P1;HPM_P2
2022/05/01 00:01:07;;;;;;;0.10;0.10;;;;;;;;;;5051056;28;20044;-81
2022/05/01 00:03:36;;;;;;;0.13;0.13;;;;;;;;;;5052095;28;20029;-80
2022/05/01 00:06:06;;;;;;;0.10;0.10;;;;;;;;;;5052390;28;20111;-81
2022/05/01 00:08:33;;;;;;;0.10;0.10;;;;;;;;;;5050776;28;20063;-80
2022/05/01 00:11:00;;;;;;;0.10;0.10;;;;;;;;;;5052332;28;20028;-80
2022/05/01 00:13:26;;;;;;;0.13;0.13;;;;;;;;;;5050740;28;20025;-81
2022/05/01 00:15:52;;;;;;;0.10;0.10;;;;;;;;;;5052161;28;20024;-80
2022/05/01 00:18:19;;;;;;;0.10;0.10;;;;;;;;;;5052463;28;20033;-80
2022/05/01 00:20:45;;;;;;;0.10;0.10;;;;;;;;;;5051757;28;20492;-80
2022/05/01 00:23:11;;;;;;;0.10;0.10;;;;;;;;;;5052056;28;20021;-80
2022/05/01 00:25:42;;;;;;;0.15;0.15;;;;;;;;;;5051690;28;20071;-80
2022/05/01 00:28:08;;;;;;;0.10;0.10;;;;;;;;;;5051907;28;20023;-80
2022/05/01 00:30:34;;;;;;;0.10;0.10;;;;;;;;;;5051589;28;20033;-81
2022/05/01 00:38:30;;;;;;;0.10;0.10;;;;;;;;;;5051545;28;20106;-80
2022/05/01 00:40:56;;;;;;;0.10;0.10;;;;;;;;;;5051653;28;20033;-81
2022/05/01 00:43:22;;;;;;;0.10;0.10;;;;;;;;;;5051521;28;20029;-80
2022/05/01 00:45:49;;;;;;;0.10;0.10;;;;;;;;;;5051317;28;20041;-81
2022/05/01 00:48:15;;;;;;;0.10;0.10;;;;;;;;;;5049344;28;20017;-80
2022/05/01 00:50:43;;;;;;;0.10;0.10;;;;;;;;;;5049377;28;20102;-81
2022/05/01 00:53:09;;;;;;;0.10;0.10;;;;;;;;;;5050209;28;20025;-81
2022/05/01 00:55:36;;;;;;;0.13;0.13;;;;;;;;;;5051258;28;20029;-80
2022/05/01 00:58:04;;;;;;;0.10;0.10;;;;;;;;;;5051352;28;20032;-80
2022/05/01 01:00:30;;;;;;;0.10;0.10;;;;;;;;;;5051078;28;20033;-80
2022/05/01 01:02:56;;;;;;;0.10;0.10;;;;;;;;;;5050061;28;20029;-80
2022/05/01 01:05:22;;;;;;;0.10;0.10;;;;;;;;;;5050308;28;20426;-79
2022/05/01 01:07:48;;;;;;;0.10;0.10;;;;;;;;;;5051226;28;20027;-80
2022/05/01 01:10:14;;;;;;;0.10;0.10;;;;;;;;;;5051300;28;20061;-79
2022/05/01 01:12:56;;;;;;;0.10;0.10;;;;;;;;;;5050906;28;20469;-80
2022/05/01 01:15:28;;;;;;;0.10;0.10;;;;;;;;;;5050908;28;20037;-80
2022/05/01 01:17:55;;;;;;;0.13;0.13;;;;;;;;;;5051358;28;20075;-80
2022/05/01 01:20:22;;;;;;;0.10;0.10;;;;;;;;;;5049807;28;20507;-80
2022/05/01 01:22:50;;;;;;;0.10;0.10;;;;;;;;;;5050156;28;20045;-81
2022/05/01 01:25:18;;;;;;;0.10;0.10;;;;;;;;;;5051297;28;20029;-81
2022/05/01 01:27:44;;;;;;;0.17;0.17;;;;;;;;;;5050923;28;20021;-80
2022/05/01 01:32:55;;;;;;;0.10;0.10;;;;;;;;;;5051093;28;20028;-78
2022/05/01 01:35:23;;;;;;;0.10;0.10;;;;;;;;;;5050859;28;20052;-79
2022/05/01 01:37:53;;;;;;;0.10;0.10;;;;;;;;;;5049876;28;20029;-79
2022/05/01 01:40:21;;;;;;;0.10;0.10;;;;;;;;;;5049824;28;20037;-79
2022/05/01 01:42:49;;;;;;;0.10;0.10;;;;;;;;;;5051210;28;20032;-79
2022/05/01 01:45:15;;;;;;;0.10;0.10;;;;;;;;;;5050850;28;20083;-79
2022/05/01 01:47:43;;;;;;;0.10;0.10;;;;;;;;;;5050728;28;20021;-79
2022/05/01 01:50:09;;;;;;;0.10;0.10;;;;;;;;;;5050808;28;20021;-79
2022/05/01 01:52:35;;;;;;;0.10;0.10;;;;;;;;;;5049226;28;20033;-79
2022/05/01 01:55:01;;;;;;;0.10;0.10;;;;;;;;;;5050754;28;20086;-79
2022/05/01 01:57:27;;;;;;;0.10;0.10;;;;;;;;;;5050592;28;20419;-79
2022/05/01 01:59:53;;;;;;;0.20;0.20;;;;;;;;;;5050761;28;20040;-79
2022/05/01 02:02:19;;;;;;;0.10;0.10;;;;;;;;;;5051137;28;20053;-79
2022/05/01 02:04:45;;;;;;;0.10;0.10;;;;;;;;;;5049202;28;20033;-79
2022/05/01 02:07:11;;;;;;;0.10;0.10;;;;;;;;;;5050731;28;20029;-79
2022/05/01 02:09:38;;;;;;;0.13;0.13;;;;;;;;;;5050552;28;20033;-79
2022/05/01 02:12:08;;;;;;;0.10;0.10;;;;;;;;;;5050702;28;20106;-79
2022/05/01 02:14:37;;;;;;;0.10;0.10;;;;;;;;;;5050392;28;20492;-80
2022/05/01 02:17:03;;;;;;;0.10;0.10;;;;;;;;;;5053384;28;20373;-79
2022/05/01 02:19:30;;;;;;;0.20;0.20;;;;;;;;;;5054116;28;20111;-79
2022/05/01 02:21:56;;;;;;;0.10;0.10;;;;;;;;;;5054195;28;20397;-79
2022/05/01 02:24:25;;;;;;;0.10;0.10;;;;;;;;;;5052866;28;20094;-80
2022/05/01 02:26:52;;;;;;;0.20;0.20;;;;;;;;;;5054294;28;20017;-79
2022/05/01 02:29:18;;;;;;;0.10;0.10;;;;;;;;;;5054493;28;20462;-80
2022/05/01 02:31:44;;;;;;;0.10;0.10;;;;;;;;;;5053916;28;20094;-80
2022/05/01 02:34:11;;;;;;;0.10;0.10;;;;;;;;;;5054113;28;20513;-80
2022/05/01 02:36:38;;;;;;;0.10;0.10;;;;;;;;;;5053823;28;20016;-79
2022/05/01 02:39:05;;;;;;;0.10;0.10;;;;;;;;;;5053816;28;20473;-79
2022/05/01 02:41:31;;;;;;;0.10;0.10;;;;;;;;;;5053672;28;20457;-79
2022/05/01 02:43:58;;;;;;;0.10;0.10;;;;;;;;;;5053899;28;20099;-78
2022/05/01 02:46:26;;;;;;;0.10;0.10;;;;;;;;;;5053641;28;20036;-79
2022/05/01 02:48:52;;;;;;;0.10;0.10;;;;;;;;;;5053888;28;20025;-80
2022/05/01 02:51:18;;;;;;;0.10;0.10;;;;;;;;;;5054076;28;20443;-80
2022/05/01 02:53:44;;;;;;;0.10;0.10;;;;;;;;;;5052153;28;20025;-79
2022/05/01 02:56:10;;;;;;;0.10;0.10;;;;;;;;;;5052458;28;20021;-79
2022/05/01 02:58:36;;;;;;;0.10;0.10;;;;;;;;;;5053406;28;20032;-79
2022/05/01 03:01:02;;;;;;;0.10;0.10;;;;;;;;;;5053539;28;20037;-79
2022/05/01 03:03:28;;;;;;;0.10;0.10;;;;;;;;;;5053287;28;20444;-80
2022/05/01 03:05:55;;;;;;;0.10;0.10;;;;;;;;;;5053569;28;20099;-79
2022/05/01 03:08:21;;;;;;;0.20;0.20;;;;;;;;;;5053550;28;20457;-79
2022/05/01 03:10:47;;;;;;;0.10;0.10;;;;;;;;;;5053690;28;20112;-80
2022/05/01 03:13:14;;;;;;;0.20;0.20;;;;;;;;;;5053270;28;20056;-79
2022/05/01 03:15:40;;;;;;;0.10;0.10;;;;;;;;;;5053134;28;20036;-79
2022/05/01 03:23:36;;;;;;;0.10;0.10;;;;;;;;;;5053080;28;20408;-79
2022/05/01 03:26:02;;;;;;;1.17;1.17;;;;;;;;;;5053110;28;20100;-79
2022/05/01 03:28:28;;;;;;;0.10;0.10;;;;;;;;;;5051669;28;20077;-79
2022/05/01 03:30:54;;;;;;;0.10;0.10;;;;;;;;;;5053126;28;20025;-79
2022/05/01 03:33:21;;;;;;;0.10;0.10;;;;;;;;;;5053339;28;20052;-79
2022/05/01 03:35:48;;;;;;;0.10;0.10;;;;;;;;;;5053198;28;20021;-79
2022/05/01 03:38:15;;;;;;;0.10;0.10;;;;;;;;;;5051586;28;20029;-79
2022/05/01 03:40:41;;;;;;;0.10;0.10;;;;;;;;;;5052489;28;20202;-79
2022/05/01 03:43:07;;;;;;;0.10;0.10;;;;;;;;;;5052891;28;20484;-79
2022/05/01 03:45:34;;;;;;;0.10;0.10;;;;;;;;;;5052353;28;20456;-80
2022/05/01 03:48:00;;;;;;;0.00;0.00;;;;;;;;;;5052757;28;20385;-80
2022/05/01 03:50:26;;;;;;;0.10;0.10;;;;;;;;;;5052344;28;20025;-80
2022/05/01 03:52:53;;;;;;;0.10;0.10;;;;;;;;;;5052763;28;20446;-80
2022/05/01 03:55:19;;;;;;;0.10;0.10;;;;;;;;;;5052740;28;20025;-80
2022/05/01 03:57:45;;;;;;;0.10;0.10;;;;;;;;;;5052474;28;20056;-79
2022/05/01 04:00:11;;;;;;;0.10;0.10;;;;;;;;;;5052437;28;20040;-80
2022/05/01 04:02:42;;;;;;;0.10;0.10;;;;;;;;;;5052278;28;20021;-80
2022/05/01 04:05:09;;;;;;;0.10;0.10;;;;;;;;;;5052432;28;20029;-80
2022/05/01 04:07:35;;;;;;;0.10;0.10;;;;;;;;;;5052089;28;20028;-80
2022/05/01 04:10:01;;;;;;;0.20;0.20;;;;;;;;;;5052302;28;20021;-80
2022/05/01 04:12:27;;;;;;;0.10;0.10;;;;;;;;;;5051973;28;20029;-80
2022/05/01 04:14:53;;;;;;;0.10;0.10;;;;;;;;;;5051145;28;20079;-80
2022/05/01 04:17:19;;;;;;;0.10;0.10;;;;;;;;;;5052509;28;20029;-80
2022/05/01 04:19:45;;;;;;;0.10;0.10;;;;;;;;;;5050609;28;20067;-79
2022/05/01 04:22:11;;;;;;;0.10;0.10;;;;;;;;;;5050830;28;20029;-80
2022/05/01 04:24:37;;;;;;;0.15;0.15;;;;;;;;;;5050516;28;20025;-80
2022/05/01 04:27:06;;;;;;;0.10;0.10;;;;;;;;;;5052006;28;20025;-79
2022/05/01 04:29:39;;;;;;;0.10;0.10;;;;;;;;;;5051841;28;20033;-79
2022/05/01 04:32:05;;;;;;;0.10;0.10;;;;;;;;;;5052028;28;20021;-79
2022/05/01 04:34:32;;;;;;;0.15;0.15;;;;;;;;;;5051725;28;20036;-79
2022/05/01 04:36:58;;;;;;;0.20;0.20;;;;;;;;;;5051740;28;20115;-79
2022/05/01 04:39:25;;;;;;;0.10;0.10;;;;;;;;;;5051031;28;20037;-80
2022/05/01 04:41:53;;;;;;;0.20;0.20;;;;;;;;;;5052224;28;20373;-80
2022/05/01 04:44:19;;;;;;;0.10;0.10;;;;;;;;;;5051940;28;20033;-80
2022/05/01 04:46:49;;;;;;;0.10;0.10;;;;;;;;;;5051539;28;20162;-80
2022/05/01 04:49:16;;;;;;;0.20;0.20;;;;;;;;;;5051607;28;20021;-81
2022/05/01 04:51:42;;;;;;;0.10;0.10;;;;;;;;;;5051332;28;20114;-80
2022/05/01 04:54:08;;;;;;;0.20;0.20;;;;;;;;;;5050394;28;20124;-81
2022/05/01 04:59:19;;;;;;;0.10;0.10;;;;;;;;;;5051653;28;20083;-81
2022/05/01 05:01:45;;;;;;;0.10;0.10;;;;;;;;;;5051053;28;20393;-81
2022/05/01 05:04:11;;;;;;;0.20;0.20;;;;;;;;;;5050010;28;20028;-80
2022/05/01 05:06:37;;;;;;;0.10;0.10;;;;;;;;;;5051037;28;20025;-80
2022/05/01 05:11:47;;;;;;;0.20;0.20;;;;;;;;;;5051551;28;20504;-81
2022/05/01 05:14:13;;;;;;;0.10;0.10;;;;;;;;;;5051161;28;20056;-80
2022/05/01 05:16:41;;;;;;;0.10;0.10;;;;;;;;;;5050977;28;20032;-81
2022/05/01 05:19:07;;;;;;;0.10;0.10;;;;;;;;;;5051166;28;20033;-80
2022/05/01 05:21:33;;;;;;;1.25;1.20;;;;;;;;;;5050989;28;20092;-80
2022/05/01 05:23:59;;;;;;;0.10;0.10;;;;;;;;;;5051102;28;20120;-81
2022/05/01 05:26:25;;;;;;;0.10;0.10;;;;;;;;;;5049506;28;20460;-80
2022/05/01 05:28:52;;;;;;;0.10;0.10;;;;;;;;;;5051114;28;20029;-80
2022/05/01 05:31:18;;;;;;;0.10;0.10;;;;;;;;;;5051299;28;20021;-79
2022/05/01 05:33:44;;;;;;;0.10;0.10;;;;;;;;;;5050835;28;20081;-80
2022/05/01 05:36:10;;;;;;;0.10;0.10;;;;;;;;;;5051060;28;20075;-80
2022/05/01 05:38:38;;;;;;;0.10;0.10;;;;;;;;;;5050793;28;20056;-79
2022/05/01 05:41:05;;;;;;;0.10;0.10;;;;;;;;;;5051042;28;20091;-80
2022/05/01 05:43:31;;;;;;;0.10;0.10;;;;;;;;;;5050689;28;20017;-80
2022/05/01 05:45:57;;;;;;;0.10;0.10;;;;;;;;;;5050687;28;20085;-80
2022/05/01 05:48:23;;;;;;;0.10;0.10;;;;;;;;;;5050735;28;20025;-80
2022/05/01 05:50:49;;;;;;;0.10;0.10;;;;;;;;;;5052033;28;20056;-81
2022/05/01 05:53:15;;;;;;;0.20;0.20;;;;;;;;;;5054943;28;20439;-79
2022/05/01 05:55:41;;;;;;;0.20;0.20;;;;;;;;;;5054633;28;20029;-80
2022/05/01 05:58:07;;;;;;;0.10;0.10;;;;;;;;;;5054747;28;20095;-80
2022/05/01 06:00:33;;;;;;;0.10;0.10;;;;;;;;;;5054492;28;20115;-80
2022/05/01 06:02:59;;;;;;;0.10;0.10;;;;;;;;;;5053503;28;20017;-81
2022/05/01 06:05:25;;;;;;;0.10;0.10;;;;;;;;;;5054553;28;20449;-80
2022/05/01 06:07:51;;;;;;;0.10;0.10;;;;;;;;;;5053445;28;20374;-80
2022/05/01 06:10:17;;;;;;;0.20;0.20;;;;;;;;;;5054913;28;20032;-80
2022/05/01 06:12:43;;;;;;;0.20;0.20;;;;;;;;;;5054283;28;20036;-81
2022/05/01 06:15:09;;;;;;;0.10;0.10;;;;;;;;;;5054415;28;20024;-80
2022/05/01 06:17:35;;;;;;;0.10;0.10;;;;;;;;;;5054241;28;20082;-79
2022/05/01 06:20:01;;;;;;;0.10;0.10;;;;;;;;;;5049422;28;20041;-78
2022/05/01 06:22:27;;;;;;;0.10;0.10;;;;;;;;;;5052331;28;20029;-79
2022/05/01 06:24:53;;;;;;;0.10;0.10;;;;;;;;;;5041606;28;20087;-79
2022/05/01 06:27:19;;;;;;;0.10;0.10;;;;;;;;;;5045946;28;20029;-79
2022/05/01 06:29:45;;;;;;;0.20;0.20;;;;;;;;;;5033021;28;20124;-80
2022/05/01 06:32:11;;;;;;;0.20;0.20;;;;;;;;;;5040352;28;20025;-79
2022/05/01 06:34:38;;;;;;;0.10;0.10;;;;;;;;;;5053954;28;20466;-79
2022/05/01 06:37:05;;;;;;;0.10;0.10;;;;;;;;;;5054176;28;20017;-79
2022/05/01 06:39:31;;;;;;;0.20;0.20;;;;;;;;;;5052154;28;20123;-79
2022/05/01 06:41:57;;;;;;;0.10;0.10;;;;;;;;;;5053784;28;20029;-79
2022/05/01 06:44:23;;;;;;;0.20;0.20;;;;;;;;;;5047181;28;20032;-78
2022/05/01 06:46:49;;;;;;;0.10;0.10;;;;;;;;;;5034248;28;20482;-79
2022/05/01 06:49:15;;;;;;;0.10;0.10;;;;;;;;;;5032557;28;20029;-79
2022/05/01 06:51:41;;;;;;;0.10;0.10;;;;;;;;;;5033743;28;20029;-79
2022/05/01 06:54:08;;;;;;;0.10;0.10;;;;;;;;;;5033641;28;20030;-79
2022/05/01 06:56:35;;;;;;;0.10;0.10;;;;;;;;;;5033175;28;20021;-80
2022/05/01 06:59:01;;;;;;;0.10;0.10;;;;;;;;;;5033757;28;20108;-79
2022/05/01 07:01:27;;;;;;;0.13;0.13;;;;;;;;;;5033114;28;20556;-79
2022/05/01 07:03:53;;;;;;;0.10;0.10;;;;;;;;;;5037795;28;20025;-78
2022/05/01 07:06:19;;;;;;;0.20;0.20;;;;;;;;;;5037403;28;20065;-78
2022/05/01 07:08:45;;;;;;;0.10;0.10;;;;;;;;;;5048025;28;20040;-79
2022/05/01 07:11:11;;;;;;;0.10;0.10;;;;;;;;;;5048645;28;20028;-79
2022/05/01 07:13:40;;;;;;;0.10;0.10;;;;;;;;;;5038280;28;20436;-79
2022/05/01 07:16:06;;;;;;;0.10;0.10;;;;;;;;;;5042574;28;20109;-79
2022/05/01 07:18:32;;;;;;;0.10;0.10;;;;;;;;;;5033170;28;20040;-79
2022/05/01 07:20:59;;;;;;;0.10;0.10;;;;;;;;;;5034176;28;20042;-79
2022/05/01 07:23:26;;;;;;;0.10;0.10;;;;;;;;;;5047511;28;20480;-79
2022/05/01 07:25:52;;;;;;;0.10;0.10;;;;;;;;;;5041732;28;20053;-80
2022/05/01 07:28:18;;;;;;;0.10;0.10;;;;;;;;;;5043838;28;20064;-79
2022/05/01 07:30:44;;;;;;;0.10;0.10;;;;;;;;;;5047833;28;20033;-79
2022/05/01 07:33:10;;;;;;;0.10;0.10;;;;;;;;;;5047607;28;20477;-79
2022/05/01 07:35:37;;;;;;;0.10;0.10;;;;;;;;;;5033568;28;20021;-80
2022/05/01 07:38:03;;;;;;;0.10;0.10;;;;;;;;;;5043839;28;20032;-79
2022/05/01 07:40:29;;;;;;;0.20;0.20;;;;;;;;;;5040275;28;20451;-80
2022/05/01 07:42:55;;;;;;;0.10;0.10;;;;;;;;;;5032994;28;20555;-79
2022/05/01 07:45:21;;;;;;;0.10;0.10;;;;;;;;;;5035010;28;20068;-78
2022/05/01 07:47:47;;;;;;;0.10;0.10;;;;;;;;;;5033196;28;20028;-79
2022/05/01 07:50:14;;;;;;;0.10;0.10;;;;;;;;;;5039411;28;20021;-80
2022/05/01 07:52:40;;;;;;;0.10;0.10;;;;;;;;;;5044347;28;20029;-79
2022/05/01 07:55:07;;;;;;;0.10;0.10;;;;;;;;;;5036961;28;20024;-80
2022/05/01 07:57:33;;;;;;;0.10;0.10;;;;;;;;;;5036168;28;20032;-79
2022/05/01 07:59:59;;;;;;;0.10;0.10;;;;;;;;;;5052132;28;20033;-84
2022/05/01 08:02:33;;;;;;;0.10;0.10;;;;;;;;;;5039910;28;20056;-81
2022/05/01 08:04:59;;;;;;;0.13;0.13;;;;;;;;;;5035109;28;20148;-79
2022/05/01 08:07:25;;;;;;;0.10;0.10;;;;;;;;;;5035284;28;20504;-79
2022/05/01 08:09:51;;;;;;;0.10;0.10;;;;;;;;;;5047190;28;20037;-78
2022/05/01 08:12:17;;;;;;;0.10;0.10;;;;;;;;;;5050640;28;20393;-80
2022/05/01 08:14:44;;;;;;;0.10;0.10;;;;;;;;;;5043068;28;20049;-78
2022/05/01 08:17:10;;;;;;;0.10;0.10;;;;;;;;;;5039959;28;20020;-78
2022/05/01 08:22:21;;;;;;;0.10;0.10;;;;;;;;;;5041626;28;20562;-78
2022/05/01 08:24:47;;;;;;;0.10;0.10;;;;;;;;;;5039882;28;20013;-79
2022/05/01 08:27:13;;;;;;;0.10;0.10;;;;;;;;;;5036244;28;20025;-78
2022/05/01 08:29:39;;;;;;;0.20;0.20;;;;;;;;;;5039339;28;20051;-78
2022/05/01 08:32:06;;;;;;;0.10;0.10;;;;;;;;;;5039429;28;20455;-79
2022/05/01 08:34:33;;;;;;;0.10;0.10;;;;;;;;;;5038965;28;20050;-79
2022/05/01 08:36:59;;;;;;;0.10;0.10;;;;;;;;;;5039430;28;20033;-78
2022/05/01 08:39:25;;;;;;;0.10;0.10;;;;;;;;;;5047255;28;20128;-77
2022/05/01 08:41:51;;;;;;;0.15;0.15;;;;;;;;;;5040443;28;20021;-78
2022/05/01 08:44:21;;;;;;;0.10;0.10;;;;;;;;;;5035701;28;20033;-77
2022/05/01 08:46:56;;;;;;;0.10;0.10;;;;;;;;;;5046326;28;20030;-77
2022/05/01 08:49:22;;;;;;;0.10;0.10;;;;;;;;;;5031046;28;20083;-78
2022/05/01 08:51:49;;;;;;;0.10;0.10;;;;;;;;;;5032923;28;20025;-79
2022/05/01 08:54:16;;;;;;;0.17;0.17;;;;;;;;;;5033114;28;20025;-77
2022/05/01 08:56:43;;;;;;;0.20;0.20;;;;;;;;;;5037167;28;20037;-80
2022/05/01 08:59:10;;;;;;;0.10;0.10;;;;;;;;;;5032515;28;20034;-80
2022/05/01 09:01:37;;;;;;;0.10;0.10;;;;;;;;;;5044747;28;20103;-81
2022/05/01 09:04:08;;;;;;;0.10;0.10;;;;;;;;;;5049677;28;20536;-78
2022/05/01 09:06:38;;;;;;;0.10;0.10;;;;;;;;;;5040808;28;20382;-77
2022/05/01 09:09:08;;;;;;;0.10;0.10;;;;;;;;;;5036579;28;20079;-78
2022/05/01 09:14:21;;;;;;;0.10;0.10;;;;;;;;;;5035561;28;20389;-80
2022/05/01 09:17:07;;;;;;;0.10;0.10;;;;;;;;;;5044337;28;20060;-79
2022/05/01 09:19:33;;;;;;;0.10;0.10;;;;;;;;;;5050516;28;20037;-81
2022/05/01 09:22:00;;;;;;;0.17;0.17;;;;;;;;;;5051078;28;20036;-79
2022/05/01 09:24:29;;;;;;;0.10;0.10;;;;;;;;;;5048720;28;20472;-79
2022/05/01 09:26:56;;;;;;;0.20;0.20;;;;;;;;;;5037096;28;20025;-79
2022/05/01 09:29:26;;;;;;;0.10;0.10;;;;;;;;;;5032192;28;20026;-79
2022/05/01 09:31:53;;;;;;;0.10;0.10;;;;;;;;;;5031917;28;20056;-77
2022/05/01 09:34:19;;;;;;;0.10;0.10;;;;;;;;;;5049916;28;20025;-80
2022/05/01 09:36:45;;;;;;;0.10;0.10;;;;;;;;;;5050818;28;20028;-78
2022/05/01 09:39:11;;;;;;;0.10;0.10;;;;;;;;;;5049680;28;20029;-79
2022/05/01 09:41:42;;;;;;;0.10;0.10;;;;;;;;;;5031703;28;20399;-80
2022/05/01 09:44:14;;;;;;;0.10;0.10;;;;;;;;;;5043381;28;20025;-80
2022/05/01 09:46:40;;;;;;;0.10;0.10;;;;;;;;;;5044983;28;20055;-79
2022/05/01 09:49:13;;;;;;;0.10;0.10;;;;;;;;;;5045475;28;20482;-80
2022/05/01 09:51:46;;;;;;;0.10;0.10;;;;;;;;;;5031235;28;20048;-80
2022/05/01 09:54:25;;;;;;;0.10;0.10;;;;;;;;;;5034039;28;20056;-81
2022/05/01 09:56:52;;;;;;;0.10;0.10;;;;;;;;;;5033657;28;20033;-81
2022/05/01 09:59:18;;;;;;;0.10;0.10;;;;;;;;;;5030811;28;20033;-81
2022/05/01 10:01:56;;;;;;;0.10;0.10;;;;;;;;;;5033465;28;20064;-82
2022/05/01 10:04:23;;;;;;;0.10;0.10;;;;;;;;;;5037390;28;20029;-81
2022/05/01 10:06:51;;;;;;;0.10;0.10;;;;;;;;;;5043356;28;20017;-81
2022/05/01 10:09:18;;;;;;;0.10;0.10;;;;;;;;;;5044793;28;20108;-81
2022/05/01 10:11:45;;;;;;;0.10;0.10;;;;;;;;;;5034971;28;20032;-81
2022/05/01 10:14:11;;;;;;;0.10;0.10;;;;;;;;;;5045851;28;20064;-83
2022/05/01 10:16:40;;;;;;;0.10;0.10;;;;;;;;;;5043927;28;20055;-80
2022/05/01 10:19:06;;;;;;;0.10;0.10;;;;;;;;;;5050333;28;20120;-86
2022/05/01 10:21:33;;;;;;;0.10;0.10;;;;;;;;;;5043134;28;20505;-83
2022/05/01 10:23:59;;;;;;;0.10;0.10;;;;;;;;;;5030527;28;20057;-82
2022/05/01 10:26:27;;;;;;;0.10;0.10;;;;;;;;;;5030133;28;20025;-82
2022/05/01 10:28:56;;;;;;;0.50;0.50;;;;;;;;;;5044902;28;20032;-86
2022/05/01 10:35:04;;;;;;;0.13;0.13;;;;;;;;;;5043964;28;20119;-85
2022/05/01 10:37:33;;;;;;;0.10;0.10;;;;;;;;;;5001543;28;20125;-80
2022/05/01 10:39:59;;;;;;;0.10;0.10;;;;;;;;;;5011064;28;20046;-79
2022/05/01 10:42:36;;;;;;;0.10;0.10;;;;;;;;;;5031512;28;20123;-79
2022/05/01 10:45:03;;;;;;;0.10;0.10;;;;;;;;;;5048421;28;20060;-81
2022/05/01 10:47:36;;;;;;;0.10;0.10;;;;;;;;;;5040793;28;20378;-78
2022/05/01 10:50:08;;;;;;;0.10;0.10;;;;;;;;;;5044977;28;20095;-80
2022/05/01 10:52:35;;;;;;;0.10;0.10;;;;;;;;;;5033638;28;20025;-82
2022/05/01 10:55:05;;;;;;;0.10;0.10;;;;;;;;;;5034255;28;20025;-80
2022/05/01 10:57:31;;;;;;;0.10;0.10;;;;;;;;;;5045029;28;20029;-86
2022/05/01 11:00:05;;;;;;;0.10;0.10;;;;;;;;;;5035566;28;20041;-88
2022/05/01 11:02:38;;;;;;;0.10;0.10;;;;;;;;;;5041331;28;20040;-86
2022/05/01 11:05:05;;;;;;;0.10;0.10;;;;;;;;;;5038469;28;20045;-85
2022/05/01 11:07:34;;;;;;;0.10;0.10;;;;;;;;;;5033614;28;20409;-87
2022/05/01 11:10:01;;;;;;;0.00;0.00;;;;;;;;;;5033734;28;20112;-78
2022/05/01 11:12:27;;;;;;;0.10;0.10;;;;;;;;;;5031989;28;20039;-87
2022/05/01 11:15:00;;;;;;;0.10;0.10;;;;;;;;;;5033956;28;20028;-84
2022/05/01 11:17:42;;;;;;;0.10;0.10;;;;;;;;;;5036144;28;20041;-84
2022/05/01 11:20:08;;;;;;;0.10;0.10;;;;;;;;;;5052507;28;20392;-83
2022/05/01 11:22:35;;;;;;;0.10;0.10;;;;;;;;;;5045792;28;20478;-82
2022/05/01 11:25:02;;;;;;;0.10;0.10;;;;;;;;;;5051909;28;20025;-92
2022/05/01 11:27:28;;;;;;;0.10;0.10;;;;;;;;;;5036738;28;20022;-87
2022/05/01 11:30:09;;;;;;;0.10;0.10;;;;;;;;;;5033270;28;20083;-84
2022/05/01 11:32:45;;;;;;;0.10;0.10;;;;;;;;;;5048279;28;20116;-83
2022/05/01 11:35:11;;;;;;;0.10;0.10;;;;;;;;;;5042702;28;20887;-79
2022/05/01 11:37:48;;;;;;;0.10;0.10;;;;;;;;;;5036724;28;20028;-80
2022/05/01 11:40:22;;;;;;;0.10;0.10;;;;;;;;;;5032574;28;20033;-78
2022/05/01 11:42:49;;;;;;;0.10;0.10;;;;;;;;;;5039936;28;20117;-80
2022/05/01 11:45:15;;;;;;;0.10;0.10;;;;;;;;;;5042552;28;20060;-80
2022/05/01 11:47:42;;;;;;;0.10;0.10;;;;;;;;;;5041444;28;20040;-82
2022/05/01 11:50:17;;;;;;;0.00;0.00;;;;;;;;;;5049979;28;20027;-79
2022/05/01 11:52:45;;;;;;;0.10;0.10;;;;;;;;;;5051066;28;20116;-83
2022/05/01 11:55:12;;;;;;;0.10;0.10;;;;;;;;;;5052406;28;20025;-80
2022/05/01 12:03:12;;;;;;;0.10;0.10;;;;;;;;;;5051774;28;20099;-80
2022/05/01 12:05:45;;;;;;;0.15;0.15;;;;;;;;;;5050661;28;20396;-80
2022/05/01 12:08:12;;;;;;;0.10;0.10;;;;;;;;;;5052437;28;20043;-82
2022/05/01 12:10:41;;;;;;;0.10;0.10;;;;;;;;;;5051569;28;20029;-80
2022/05/01 12:13:17;;;;;;;0.10;0.10;;;;;;;;;;5046064;28;20030;-82
2022/05/01 12:15:43;;;;;;;0.10;0.10;;;;;;;;;;5031629;28;20029;-81
2022/05/01 12:18:09;;;;;;;0.10;0.10;;;;;;;;;;5031785;28;20032;-80
2022/05/01 12:20:36;;;;;;;0.10;0.10;;;;;;;;;;5031569;28;20116;-84
2022/05/01 12:23:01;;;;;;;0.10;0.10;;;;;;;;;;5031567;28;20048;-85
2022/05/01 12:25:27;;;;;;;0.10;0.10;;;;;;;;;;5031710;28;20470;-81
2022/05/01 12:27:54;;;;;;;0.10;0.10;;;;;;;;;;5030554;28;20026;-82
2022/05/01 12:30:22;;;;;;;0.10;0.10;;;;;;;;;;5031847;28;20029;-82
2022/05/01 12:32:54;;;;;;;0.10;0.10;;;;;;;;;;5031918;28;20071;-84
2022/05/01 12:35:20;;;;;;;0.10;0.10;;;;;;;;;;5032218;28;20029;-84
2022/05/01 12:37:49;;;;;;;0.10;0.10;;;;;;;;;;5032254;28;20018;-84
2022/05/01 12:43:50;;;;;;;0.10;0.10;;;;;;;;;;5031478;28;20405;-83
2022/05/01 12:45:54;;;;;;;0.10;0.10;;;;;;;;;;5031520;28;20048;-82
2022/05/01 12:48:21;;;;;;;0.10;0.10;;;;;;;;;;5031325;28;20041;-82
2022/05/01 12:50:51;;;;;;;0.10;0.10;;;;;;;;;;5031978;28;20104;-81
2022/05/01 12:53:21;;;;;;;0.10;0.10;;;;;;;;;;5032175;28;20029;-81
2022/05/01 12:55:47;;;;;;;0.15;0.15;;;;;;;;;;5031380;28;20028;-82
2022/05/01 12:58:13;;;;;;;0.10;0.10;;;;;;;;;;5031218;28;20064;-81
2022/05/01 13:00:42;;;;;;;0.10;0.10;;;;;;;;;;5030873;28;20076;-82
2022/05/01 13:03:25;;;;;;;0.10;0.10;;;;;;;;;;5031133;28;20397;-81
2022/05/01 13:06:11;;;;;;;0.10;0.10;;;;;;;;;;5029051;28;20052;-81
2022/05/01 13:08:41;;;;;;;0.10;0.10;;;;;;;;;;5030212;28;20018;-84
2022/05/01 13:11:07;;;;;;;0.10;0.10;;;;;;;;;;5031025;28;20025;-85
2022/05/01 13:13:52;;;;;;;0.17;0.17;;;;;;;;;;5030905;28;20036;-82
2022/05/01 13:16:25;;;;;;;0.10;0.10;;;;;;;;;;5031384;28;20061;-83
2022/05/01 13:18:52;;;;;;;0.10;0.10;;;;;;;;;;5029364;28;20025;-83
2022/05/01 13:21:19;;;;;;;0.30;0.30;;;;;;;;;;5030940;28;20055;-85
2022/05/01 13:23:45;;;;;;;0.10;0.10;;;;;;;;;;5030719;28;20108;-80
2022/05/01 13:26:11;;;;;;;0.05;0.05;;;;;;;;;;5030618;28;20061;-81
2022/05/01 13:28:37;;;;;;;0.10;0.10;;;;;;;;;;5029241;28;20057;-81
2022/05/01 13:31:03;;;;;;;0.10;0.10;;;;;;;;;;5030706;28;20462;-82
2022/05/01 13:33:29;;;;;;;0.10;0.10;;;;;;;;;;5030432;28;20025;-83
2022/05/01 13:35:56;;;;;;;0.10;0.10;;;;;;;;;;5030563;28;20087;-78
2022/05/01 13:38:22;;;;;;;0.10;0.10;;;;;;;;;;5030790;28;20036;-79
2022/05/01 13:46:17;;;;;;;0.17;0.17;;;;;;;;;;5039354;28;20048;-81
2022/05/01 13:48:44;;;;;;;0.10;0.10;;;;;;;;;;5039528;28;20017;-82
2022/05/01 13:51:10;;;;;;;0.10;0.10;;;;;;;;;;5041065;28;20021;-80
2022/05/01 13:53:36;;;;;;;0.10;0.10;;;;;;;;;;5047221;28;20598;-81
2022/05/01 13:56:02;;;;;;;0.10;0.10;;;;;;;;;;5051754;28;20037;-78
2022/05/01 13:58:28;;;;;;;0.10;0.10;;;;;;;;;;5046558;28;20017;-81
2022/05/01 14:00:54;;;;;;;0.10;0.10;;;;;;;;;;5038847;28;20095;-80
2022/05/01 14:03:20;;;;;;;0.10;0.10;;;;;;;;;;5038964;28;20017;-79
2022/05/01 14:05:46;;;;;;;0.10;0.10;;;;;;;;;;5039024;28;20025;-78
2022/05/01 14:08:12;;;;;;;0.10;0.10;;;;;;;;;;5038704;28;20501;-78
2022/05/01 14:10:38;;;;;;;0.10;0.10;;;;;;;;;;5043966;28;20057;-78
2022/05/01 14:13:07;;;;;;;0.10;0.10;;;;;;;;;;5053554;28;20064;-78
2022/05/01 14:15:37;;;;;;;0.10;0.10;;;;;;;;;;5041463;28;20025;-79
2022/05/01 14:18:04;;;;;;;0.20;0.20;;;;;;;;;;5041466;28;20032;-77
2022/05/01 14:20:31;;;;;;;0.10;0.10;;;;;;;;;;5041610;28;20485;-77
2022/05/01 14:22:57;;;;;;;0.13;0.13;;;;;;;;;;5042653;28;20013;-78
2022/05/01 14:25:24;;;;;;;0.10;0.10;;;;;;;;;;5043483;28;20449;-77
2022/05/01 14:27:50;;;;;;;0.10;0.10;;;;;;;;;;5042235;28;20021;-79
2022/05/01 14:30:16;;;;;;;0.10;0.10;;;;;;;;;;5041395;28;20020;-79
2022/05/01 14:32:56;;;;;;;0.10;0.10;;;;;;;;;;5036986;28;20030;-79
2022/05/01 14:35:24;;;;;;;0.17;0.17;;;;;;;;;;5036062;28;20506;-78
2022/05/01 14:38:06;;;;;;;0.15;0.15;;;;;;;;;;5041354;28;20060;-78
2022/05/01 14:40:34;;;;;;;0.03;0.03;;;;;;;;;;5033853;28;20513;-78
2022/05/01 14:43:01;;;;;;;0.10;0.10;;;;;;;;;;5034942;28;20379;-79
2022/05/01 14:45:28;;;;;;;0.10;0.10;;;;;;;;;;5032524;28;20033;-79
2022/05/01 14:47:56;;;;;;;0.10;0.10;;;;;;;;;;5034181;28;20025;-78
2022/05/01 14:50:23;;;;;;;0.10;0.10;;;;;;;;;;5034538;28;20497;-78
2022/05/01 14:52:52;;;;;;;0.10;0.10;;;;;;;;;;5044464;28;20021;-79
2022/05/01 14:55:20;;;;;;;0.10;0.10;;;;;;;;;;5043634;28;20024;-79
2022/05/01 14:57:47;;;;;;;0.10;0.10;;;;;;;;;;5041070;28;20056;-79
2022/05/01 15:08:30;;;;;;;0.10;0.10;;;;;;;;;;5045908;28;20534;-80
2022/05/01 15:10:57;;;;;;;0.10;0.10;;;;;;;;;;5041738;28;20118;-81
2022/05/01 15:13:23;;;;;;;0.10;0.10;;;;;;;;;;5040735;28;20105;-81
2022/05/01 15:15:49;;;;;;;0.10;0.10;;;;;;;;;;5042511;28;20044;-81
2022/05/01 15:18:19;;;;;;;0.10;0.10;;;;;;;;;;5040797;28;20092;-81
2022/05/01 15:20:49;;;;;;;0.10;0.10;;;;;;;;;;5041324;28;20086;-81
2022/05/01 15:23:22;;;;;;;0.10;0.10;;;;;;;;;;5040467;28;20388;-80
2022/05/01 15:25:51;;;;;;;0.10;0.10;;;;;;;;;;5040346;28;20520;-80
2022/05/01 15:28:19;;;;;;;0.10;0.10;;;;;;;;;;5045580;28;20017;-80
2022/05/01 15:30:50;;;;;;;0.10;0.10;;;;;;;;;;5042509;28;20060;-81
2022/05/01 15:33:42;;;;;;;0.10;0.10;;;;;;;;;;5044561;28;20021;-81
2022/05/01 15:36:07;;;;;;;0.10;0.10;;;;;;;;;;5043160;28;20034;-81